sensor_id;sensor_type;location;lat;lon;timestamp;pressure;altitude;pressure_sealevel;temperature;humidity
71791;BME280;59638;52.126;5.434;2024-02-14T00:00:19;101305.88;;;7.31;100.00
71791;BME280;59638;52.126;5.434;2024-02-14T00:02:47;101297.81;;;7.34;100.00
71791;BME280;59638;52.126;5.434;2024-02-14T00:05:17;101285.63;;;7.33;100.00
71791;BME280;59638;52.126;5.434;2024-02-14T00:07:43;101288.97;;;7.35;100.00
71791;BME280;59638;52.126;5.434;2024-02-14T00:10:10;101291.59;;;7.35;100.00
71791;BME280;59638;52.126;5.434;2024-02-14T00:12:37;101290.78;;;7.35;100.00
71791;BME280;59638;52.126;5.434;2024-02-14T00:15:04;101293.28;;;7.36;100.00
71791;BME280;59638;52.126;5.434;2024-02-14T00:17:33;101291.59;;;7.35;100.00
71791;BME280;59638;52.126;5.434;2024-02-14T00:20:02;101291.38;;;7.39;100.00
71791;BME280;59638;52.126;5.434;2024-02-14T00:22:30;101293.94;;;7.40;100.00
71791;BME280;59638;52.126;5.434;2024-02-14T00:24:57;101279.72;;;7.43;100.00
71791;BME280;59638;52.126;5.434;2024-02-14T00:27:23;101293.59;;;7.45;100.00
71791;BME280;59638;52.126;5.434;2024-02-14T00:29:52;101279.50;;;7.46;100.00
71791;BME280;59638;52.126;5.434;2024-02-14T00:32:20;101282.66;;;7.51;100.00
71791;BME280;59638;52.126;5.434;2024-02-14T00:34:46;101273.81;;;7.52;100.00
71791;BME280;59638;52.126;5.434;2024-02-14T00:37:14;101276.38;;;7.53;100.00
71791;BME280;59638;52.126;5.434;2024-02-14T00:39:40;101276.25;;;7.55;100.00
71791;BME280;59638;52.126;5.434;2024-02-14T00:42:07;101266.47;;;7.57;100.00
71791;BME280;59638;52.126;5.434;2024-02-14T00:44:33;101261.22;;;7.57;100.00
71791;BME280;59638;52.126;5.434;2024-02-14T00:46:59;101264.56;;;7.59;100.00
71791;BME280;59638;52.126;5.434;2024-02-14T00:49:28;101262.47;;;7.64;100.00
71791;BME280;59638;52.126;5.434;2024-02-14T00:51:55;101250.06;;;7.66;100.00
71791;BME280;59638;52.126;5.434;2024-02-14T00:54:21;101256.78;;;7.70;100.00
71791;BME280;59638;52.126;5.434;2024-02-14T00:56:48;101256.56;;;7.73;100.00
71791;BME280;59638;52.126;5.434;2024-02-14T00:59:14;101265.19;;;7.75;100.00
71791;BME280;59638;52.126;5.434;2024-02-14T01:01:41;101257.06;;;7.78;100.00
71791;BME280;59638;52.126;5.434;2024-02-14T01:04:07;101255.19;;;7.80;100.00
71791;BME280;59638;52.126;5.434;2024-02-14T01:06:34;101260.09;;;7.85;100.00
71791;BME280;59638;52.126;5.434;2024-02-14T01:09:01;101259.88;;;7.88;100.00
71791;BME280;59638;52.126;5.434;2024-02-14T01:11:27;101258.09;;;7.88;100.00
71791;BME280;59638;52.126;5.434;2024-02-14T01:13:54;101240.41;;;7.90;100.00
71791;BME280;59638;52.126;5.434;2024-02-14T01:16:21;101256.94;;;7.93;100.00
71791;BME280;59638;52.126;5.434;2024-02-14T01:18:47;101246.41;;;7.93;100.00
71791;BME280;59638;52.126;5.434;2024-02-14T01:21:14;101255.22;;;7.91;100.00
71791;BME280;59638;52.126;5.434;2024-02-14T01:23:41;101255.88;;;7.95;100.00
71791;BME280;59638;52.126;5.434;2024-02-14T01:26:07;101251.22;;;7.99;100.00
71791;BME280;59638;52.126;5.434;2024-02-14T01:28:34;101252.66;;;8.03;100.00
71791;BME280;59638;52.126;5.434;2024-02-14T01:31:00;101245.50;;;8.05;100.00
71791;BME280;59638;52.126;5.434;2024-02-14T01:33:26;101247.41;;;8.03;100.00
71791;BME280;59638;52.126;5.434;2024-02-14T01:35:54;101245.50;;;8.05;100.00
71791;BME280;59638;52.126;5.434;2024-02-14T01:38:21;101248.13;;;8.05;100.00
71791;BME280;59638;52.126;5.434;2024-02-14T01:40:48;101245.31;;;8.08;100.00
71791;BME280;59638;52.126;5.434;2024-02-14T01:43:14;101248.88;;;8.07;100.00
71791;BME280;59638;52.126;5.434;2024-02-14T01:45:41;101235.75;;;8.07;100.00
71791;BME280;59638;52.126;5.434;2024-02-14T01:48:08;101242.44;;;8.11;100.00
71791;BME280;59638;52.126;5.434;2024-02-14T01:50:36;101243.38;;;8.10;100.00
71791;BME280;59638;52.126;5.434;2024-02-14T01:53:03;101252.00;;;8.12;100.00
71791;BME280;59638;52.126;5.434;2024-02-14T01:55:30;101244.63;;;8.17;100.00
71791;BME280;59638;52.126;5.434;2024-02-14T01:57:57;101242.94;;;8.16;100.00
71791;BME280;59638;52.126;5.434;2024-02-14T02:00:23;101237.47;;;8.19;100.00
71791;BME280;59638;52.126;5.434;2024-02-14T02:02:51;101244.63;;;8.17;100.00
71791;BME280;59638;52.126;5.434;2024-02-14T02:05:17;101243.44;;;8.21;100.00
71791;BME280;59638;52.126;5.434;2024-02-14T02:07:45;101255.53;;;8.24;100.00
71791;BME280;59638;52.126;5.434;2024-02-14T02:10:30;101249.09;;;8.28;100.00
71791;BME280;59638;52.126;5.434;2024-02-14T02:13:00;101243.72;;;8.29;100.00
71791;BME280;59638;52.126;5.434;2024-02-14T02:15:27;101247.06;;;8.31;100.00
71791;BME280;59638;52.126;5.434;2024-02-14T02:17:55;101244.34;;;8.33;100.00
71791;BME280;59638;52.126;5.434;2024-02-14T02:20:22;101248.56;;;8.35;100.00
71791;BME280;59638;52.126;5.434;2024-02-14T02:22:49;101244.97;;;8.36;100.00
71791;BME280;59638;52.126;5.434;2024-02-14T02:25:15;101248.22;;;8.40;100.00
71791;BME280;59638;52.126;5.434;2024-02-14T02:27:42;101250.75;;;8.41;100.00
71791;BME280;59638;52.126;5.434;2024-02-14T02:30:08;101250.75;;;8.41;100.00
71791;BME280;59638;52.126;5.434;2024-02-14T02:32:36;101248.94;;;8.42;100.00
71791;BME280;59638;52.126;5.434;2024-02-14T02:35:04;101257.56;;;8.44;100.00
71791;BME280;59638;52.126;5.434;2024-02-14T02:37:31;101257.47;;;8.46;100.00
71791;BME280;59638;52.126;5.434;2024-02-14T02:39:58;101267.88;;;8.47;100.00
71791;BME280;59638;52.126;5.434;2024-02-14T02:42:24;101259.72;;;8.50;100.00
71791;BME280;59638;52.126;5.434;2024-02-14T02:44:50;101272.69;;;8.53;100.00
71791;BME280;59638;52.126;5.434;2024-02-14T02:47:17;101261.06;;;8.56;100.00
71791;BME280;59638;52.126;5.434;2024-02-14T02:49:44;101266.34;;;8.56;100.00
71791;BME280;59638;52.126;5.434;2024-02-14T02:52:11;101267.78;;;8.60;100.00
71791;BME280;59638;52.126;5.434;2024-02-14T02:54:38;101260.88;;;8.59;100.00
71791;BME280;59638;52.126;5.434;2024-02-14T02:57:10;101260.00;;;8.58;100.00
71791;BME280;59638;52.126;5.434;2024-02-14T02:59:37;101262.53;;;8.60;100.00
71791;BME280;59638;52.126;5.434;2024-02-14T03:02:05;101263.25;;;8.62;100.00
71791;BME280;59638;52.126;5.434;2024-02-14T03:04:34;101266.00;;;8.60;100.00
71791;BME280;59638;52.126;5.434;2024-02-14T03:07:17;101269.47;;;8.61;100.00
71791;BME280;59638;52.126;5.434;2024-02-14T03:09:44;101268.38;;;8.63;100.00
71791;BME280;59638;52.126;5.434;2024-02-14T03:12:10;101270.91;;;8.65;100.00
71791;BME280;59638;52.126;5.434;2024-02-14T03:14:37;101265.63;;;8.65;100.00
71791;BME280;59638;52.126;5.434;2024-02-14T03:17:03;101262.06;;;8.66;100.00
71791;BME280;59638;52.126;5.434;2024-02-14T03:19:30;101267.34;;;8.66;100.00
71791;BME280;59638;52.126;5.434;2024-02-14T03:21:57;101271.66;;;8.67;100.00
71791;BME280;59638;52.126;5.434;2024-02-14T03:24:23;101269.72;;;8.69;100.00
71791;BME280;59638;52.126;5.434;2024-02-14T03:26:53;101279.28;;;8.70;100.00
71791;BME280;59638;52.126;5.434;2024-02-14T03:29:21;101278.34;;;8.71;100.00
71791;BME280;59638;52.126;5.434;2024-02-14T03:31:47;101279.78;;;8.75;100.00
71791;BME280;59638;52.126;5.434;2024-02-14T03:34:14;101274.31;;;8.78;100.00
71791;BME280;59638;52.126;5.434;2024-02-14T03:36:41;101277.66;;;8.80;100.00
71791;BME280;59638;52.126;5.434;2024-02-14T03:39:09;101281.84;;;8.83;100.00
71791;BME280;59638;52.126;5.434;2024-02-14T03:41:36;101286.16;;;8.84;100.00
71791;BME280;59638;52.126;5.434;2024-02-14T03:44:03;101283.44;;;8.85;100.00
71791;BME280;59638;52.126;5.434;2024-02-14T03:46:30;101298.16;;;8.88;100.00
71791;BME280;59638;52.126;5.434;2024-02-14T03:48:56;101286.31;;;8.93;100.00
71791;BME280;59638;52.126;5.434;2024-02-14T03:51:23;101290.50;;;8.96;100.00
71791;BME280;59638;52.126;5.434;2024-02-14T03:53:50;101290.38;;;8.97;100.00
71791;BME280;59638;52.126;5.434;2024-02-14T03:56:16;101282.47;;;8.97;100.00
71791;BME280;59638;52.126;5.434;2024-02-14T03:58:43;101286.81;;;8.98;100.00
71791;BME280;59638;52.126;5.434;2024-02-14T04:01:10;101284.19;;;8.98;100.00
71791;BME280;59638;52.126;5.434;2024-02-14T04:03:36;101289.06;;;9.03;100.00
71791;BME280;59638;52.126;5.434;2024-02-14T04:06:03;101295.09;;;9.05;100.00
71791;BME280;59638;52.126;5.434;2024-02-14T04:08:30;101295.91;;;9.06;100.00
71791;BME280;59638;52.126;5.434;2024-02-14T04:10:57;101294.00;;;9.08;100.00
71791;BME280;59638;52.126;5.434;2024-02-14T04:13:23;101308.50;;;9.13;100.00
71791;BME280;59638;52.126;5.434;2024-02-14T04:15:50;101311.72;;;9.17;100.00
71791;BME280;59638;52.126;5.434;2024-02-14T04:18:16;101309.84;;;9.19;100.00
71791;BME280;59638;52.126;5.434;2024-02-14T04:20:45;101309.59;;;9.22;100.00
71791;BME280;59638;52.126;5.434;2024-02-14T04:23:11;101315.56;;;9.24;100.00
71791;BME280;59638;52.126;5.434;2024-02-14T04:25:38;101312.94;;;9.24;100.00
71791;BME280;59638;52.126;5.434;2024-02-14T04:28:05;101317.28;;;9.25;100.00
71791;BME280;59638;52.126;5.434;2024-02-14T04:30:32;101319.78;;;9.26;100.00
71791;BME280;59638;52.126;5.434;2024-02-14T04:32:58;101326.72;;;9.27;100.00
71791;BME280;59638;52.126;5.434;2024-02-14T04:35:25;101327.34;;;9.31;100.00
71791;BME280;59638;52.126;5.434;2024-02-14T04:37:51;101331.88;;;9.29;100.00
71791;BME280;59638;52.126;5.434;2024-02-14T04:40:19;101330.91;;;9.30;100.00
71791;BME280;59638;52.126;5.434;2024-02-14T04:42:46;101329.00;;;9.32;100.00
71791;BME280;59638;52.126;5.434;2024-02-14T04:45:13;101326.47;;;9.31;100.00
71791;BME280;59638;52.126;5.434;2024-02-14T04:47:40;101329.00;;;9.32;100.00
71791;BME280;59638;52.126;5.434;2024-02-14T04:50:06;101331.53;;;9.34;100.00
71791;BME280;59638;52.126;5.434;2024-02-14T04:52:33;101331.28;;;9.37;100.00
71791;BME280;59638;52.126;5.434;2024-02-14T04:54:59;101332.09;;;9.37;100.00
71791;BME280;59638;52.126;5.434;2024-02-14T04:57:26;101340.75;;;9.39;100.00
71791;BME280;59638;52.126;5.434;2024-02-14T04:59:53;101340.75;;;9.39;100.00
71791;BME280;59638;52.126;5.434;2024-02-14T05:02:19;101342.44;;;9.40;100.00
71791;BME280;59638;52.126;5.434;2024-02-14T05:04:46;101338.63;;;9.44;100.00
71791;BME280;59638;52.126;5.434;2024-02-14T05:07:12;101340.03;;;9.48;100.00
71791;BME280;59638;52.126;5.434;2024-02-14T05:09:39;101340.03;;;9.48;100.00
71791;BME280;59638;52.126;5.434;2024-02-14T05:12:06;101347.09;;;9.48;100.00
71791;BME280;59638;52.126;5.434;2024-02-14T05:14:38;101346.16;;;9.49;100.00
71791;BME280;59638;52.126;5.434;2024-02-14T05:17:04;101351.66;;;9.46;100.00
71791;BME280;59638;52.126;5.434;2024-02-14T05:19:31;101364.97;;;9.44;100.00
71791;BME280;59638;52.126;5.434;2024-02-14T05:21:58;101358.00;;;9.43;100.00
71791;BME280;59638;52.126;5.434;2024-02-14T05:24:25;101363.25;;;9.43;100.00
71791;BME280;59638;52.126;5.434;2024-02-14T05:26:55;101364.00;;;9.45;100.00
71791;BME280;59638;52.126;5.434;2024-02-14T05:29:22;101372.13;;;9.42;100.00
71791;BME280;59638;52.126;5.434;2024-02-14T05:31:48;101366.16;;;9.40;100.00
71791;BME280;59638;52.126;5.434;2024-02-14T05:34:15;101370.44;;;9.41;100.00
71791;BME280;59638;52.126;5.434;2024-02-14T05:36:42;101372.88;;;9.44;100.00
71791;BME280;59638;52.126;5.434;2024-02-14T05:39:13;101369.50;;;9.42;100.00
71791;BME280;59638;52.126;5.434;2024-02-14T05:41:40;101379.06;;;9.43;100.00
71791;BME280;59638;52.126;5.434;2024-02-14T05:44:07;101366.84;;;9.42;100.00
71791;BME280;59638;52.126;5.434;2024-02-14T05:46:33;101372.97;;;9.43;100.00
71791;BME280;59638;52.126;5.434;2024-02-14T05:48:59;101375.50;;;9.44;100.00
71791;BME280;59638;52.126;5.434;2024-02-14T05:51:26;101371.91;;;9.45;100.00
71791;BME280;59638;52.126;5.434;2024-02-14T05:53:53;101378.13;;;9.44;100.00
71791;BME280;59638;52.126;5.434;2024-02-14T05:56:19;101375.72;;;9.41;100.00
71791;BME280;59638;52.126;5.434;2024-02-14T05:58:46;101373.81;;;9.43;100.00
71791;BME280;59638;52.126;5.434;2024-02-14T06:01:12;101381.81;;;9.42;100.00
71791;BME280;59638;52.126;5.434;2024-02-14T06:03:41;101374.03;;;9.40;100.00
71791;BME280;59638;52.126;5.434;2024-02-14T06:06:09;101377.66;;;9.39;100.00
71791;BME280;59638;52.126;5.434;2024-02-14T06:08:35;101378.59;;;9.38;100.00
71791;BME280;59638;52.126;5.434;2024-02-14T06:11:02;101390.81;;;9.39;100.00
71791;BME280;59638;52.126;5.434;2024-02-14T06:13:28;101393.44;;;9.39;100.00
71791;BME280;59638;52.126;5.434;2024-02-14T06:15:55;101390.06;;;9.37;100.00
71791;BME280;59638;52.126;5.434;2024-02-14T06:18:22;101398.72;;;9.39;100.00
71791;BME280;59638;52.126;5.434;2024-02-14T06:20:48;101403.75;;;9.42;100.00
71791;BME280;59638;52.126;5.434;2024-02-14T06:23:15;101400.16;;;9.43;100.00
71791;BME280;59638;52.126;5.434;2024-02-14T06:25:41;101403.53;;;9.45;100.00
71791;BME280;59638;52.126;5.434;2024-02-14T06:28:08;101402.44;;;9.48;100.00
71791;BME280;59638;52.126;5.434;2024-02-14T06:30:35;101410.47;;;9.46;100.00
71791;BME280;59638;52.126;5.434;2024-02-14T06:33:02;101414.28;;;9.42;100.00
71791;BME280;59638;52.126;5.434;2024-02-14T06:35:29;101419.56;;;9.42;100.00
71791;BME280;59638;52.126;5.434;2024-02-14T06:37:57;101415.97;;;9.43;100.00
71791;BME280;59638;52.126;5.434;2024-02-14T06:40:30;101418.38;;;9.46;100.00
71791;BME280;59638;52.126;5.434;2024-02-14T06:42:57;101422.94;;;9.44;100.00
71791;BME280;59638;52.126;5.434;2024-02-14T06:45:25;101428.22;;;9.44;100.00
71791;BME280;59638;52.126;5.434;2024-02-14T06:47:51;101433.47;;;9.44;100.00
71791;BME280;59638;52.126;5.434;2024-02-14T06:50:18;101431.56;;;9.46;100.00
71791;BME280;59638;52.126;5.434;2024-02-14T06:52:44;101425.44;;;9.46;100.00
71791;BME280;59638;52.126;5.434;2024-02-14T06:55:11;101430.72;;;9.46;100.00
71791;BME280;59638;52.126;5.434;2024-02-14T06:57:38;101424.38;;;9.48;100.00
71791;BME280;59638;52.126;5.434;2024-02-14T07:00:05;101426.03;;;9.49;100.00
71791;BME280;59638;52.126;5.434;2024-02-14T07:02:33;101428.47;;;9.52;100.00
71791;BME280;59638;52.126;5.434;2024-02-14T07:05:00;101433.72;;;9.52;100.00
71791;BME280;59638;52.126;5.434;2024-02-14T07:07:26;101437.06;;;9.54;100.00
71791;BME280;59638;52.126;5.434;2024-02-14T07:09:54;101438.03;;;9.53;100.00
71791;BME280;59638;52.126;5.434;2024-02-14T07:12:20;101435.41;;;9.53;100.00
71791;BME280;59638;52.126;5.434;2024-02-14T07:14:47;101448.47;;;9.55;100.00
71791;BME280;59638;52.126;5.434;2024-02-14T07:17:13;101446.78;;;9.54;100.00
71791;BME280;59638;52.126;5.434;2024-02-14T07:19:40;101449.91;;;9.59;100.00
71791;BME280;59638;52.126;5.434;2024-02-14T07:22:09;101451.47;;;9.62;100.00
71791;BME280;59638;52.126;5.434;2024-02-14T07:24:35;101458.41;;;9.63;100.00
71791;BME280;59638;52.126;5.434;2024-02-14T07:27:02;101442.72;;;9.61;100.00
71791;BME280;59638;52.126;5.434;2024-02-14T07:29:28;101450.63;;;9.61;100.00
71791;BME280;59638;52.126;5.434;2024-02-14T07:31:55;101452.31;;;9.62;100.00
71791;BME280;59638;52.126;5.434;2024-02-14T07:34:25;101446.91;;;9.64;100.00
71791;BME280;59638;52.126;5.434;2024-02-14T07:36:52;101445.97;;;9.65;100.00
71791;BME280;59638;52.126;5.434;2024-02-14T07:39:18;101444.28;;;9.64;100.00
71791;BME280;59638;52.126;5.434;2024-02-14T07:41:45;101448.72;;;9.63;100.00
71791;BME280;59638;52.126;5.434;2024-02-14T07:44:12;101448.63;;;9.65;100.00
71791;BME280;59638;52.126;5.434;2024-02-14T07:46:38;101455.56;;;9.66;100.00
71791;BME280;59638;52.126;5.434;2024-02-14T07:49:05;101449.53;;;9.64;100.00
71791;BME280;59638;52.126;5.434;2024-02-14T07:51:32;101456.28;;;9.68;100.00
71791;BME280;59638;52.126;5.434;2024-02-14T07:54:05;101465.16;;;9.67;100.00
71791;BME280;59638;52.126;5.434;2024-02-14T07:56:32;101464.91;;;9.70;100.00
71791;BME280;59638;52.126;5.434;2024-02-14T07:58:59;101464.91;;;9.70;100.00
71791;BME280;59638;52.126;5.434;2024-02-14T08:01:26;101461.91;;;9.74;100.00
71791;BME280;59638;52.126;5.434;2024-02-14T08:03:52;101471.63;;;9.74;100.00
71791;BME280;59638;52.126;5.434;2024-02-14T08:06:19;101468.03;;;9.75;100.00
71791;BME280;59638;52.126;5.434;2024-02-14T08:08:46;101467.06;;;9.76;100.00
71791;BME280;59638;52.126;5.434;2024-02-14T08:11:12;101467.81;;;9.78;100.00
71791;BME280;59638;52.126;5.434;2024-02-14T08:13:38;101485.31;;;9.79;100.00
71791;BME280;59638;52.126;5.434;2024-02-14T08:16:06;101474.75;;;9.79;100.00
71791;BME280;59638;52.126;5.434;2024-02-14T08:18:33;101480.88;;;9.79;100.00
71791;BME280;59638;52.126;5.434;2024-02-14T08:20:59;101483.38;;;9.81;100.00
71791;BME280;59638;52.126;5.434;2024-02-14T08:23:26;101484.22;;;9.81;100.00
71791;BME280;59638;52.126;5.434;2024-02-14T08:25:52;101478.13;;;9.81;100.00
71791;BME280;59638;52.126;5.434;2024-02-14T08:28:19;101481.47;;;9.83;100.00
71791;BME280;59638;52.126;5.434;2024-02-14T08:30:46;101475.97;;;9.86;100.00
71791;BME280;59638;52.126;5.434;2024-02-14T08:33:14;101475.00;;;9.87;100.00
71791;BME280;59638;52.126;5.434;2024-02-14T08:35:40;101477.41;;;9.90;100.00
71791;BME280;59638;52.126;5.434;2024-02-14T08:38:09;101487.72;;;9.93;100.00
71791;BME280;59638;52.126;5.434;2024-02-14T08:40:36;101476.22;;;9.94;100.00
71791;BME280;59638;52.126;5.434;2024-02-14T08:43:03;101484.13;;;9.94;100.00
71791;BME280;59638;52.126;5.434;2024-02-14T08:45:30;101487.47;;;9.96;100.00
71791;BME280;59638;52.126;5.434;2024-02-14T08:47:58;101487.47;;;9.96;100.00
71791;BME280;59638;52.126;5.434;2024-02-14T08:50:24;101493.59;;;9.97;100.00
71791;BME280;59638;52.126;5.434;2024-02-14T08:52:51;101490.84;;;9.98;100.00
71791;BME280;59638;52.126;5.434;2024-02-14T08:55:17;101497.81;;;9.99;100.00
71791;BME280;59638;52.126;5.434;2024-02-14T08:57:45;101492.28;;;10.02;100.00
71791;BME280;59638;52.126;5.434;2024-02-14T09:00:14;101492.28;;;10.02;100.00
71791;BME280;59638;52.126;5.434;2024-02-14T09:02:41;101492.06;;;10.05;100.00
71791;BME280;59638;52.126;5.434;2024-02-14T09:05:08;101498.16;;;10.06;100.00
71791;BME280;59638;52.126;5.434;2024-02-14T09:07:35;101494.69;;;10.05;100.00
71791;BME280;59638;52.126;5.434;2024-02-14T09:10:03;101490.38;;;10.04;100.00
71791;BME280;59638;52.126;5.434;2024-02-14T09:12:30;101500.94;;;10.04;100.00
71791;BME280;59638;52.126;5.434;2024-02-14T09:14:56;101500.94;;;10.04;100.00
71791;BME280;59638;52.126;5.434;2024-02-14T09:17:23;101508.84;;;10.04;100.00
71791;BME280;59638;52.126;5.434;2024-02-14T09:19:50;101509.78;;;10.03;100.00
71791;BME280;59638;52.126;5.434;2024-02-14T09:22:18;101514.22;;;10.03;100.00
71791;BME280;59638;52.126;5.434;2024-02-14T09:24:48;101510.75;;;10.02;100.00
71791;BME280;59638;52.126;5.434;2024-02-14T09:27:15;101513.38;;;10.02;100.00
71791;BME280;59638;52.126;5.434;2024-02-14T09:29:42;101521.28;;;10.02;100.00
71791;BME280;59638;52.126;5.434;2024-02-14T09:32:11;101523.09;;;10.02;100.00
71791;BME280;59638;52.126;5.434;2024-02-14T09:34:37;101527.31;;;10.04;100.00
71791;BME280;59638;52.126;5.434;2024-02-14T09:37:04;101523.72;;;10.05;100.00
71791;BME280;59638;52.126;5.434;2024-02-14T09:39:32;101530.41;;;10.09;100.00
71791;BME280;59638;52.126;5.434;2024-02-14T09:42:08;101521.31;;;10.14;100.00
71791;BME280;59638;52.126;5.434;2024-02-14T09:44:35;101521.31;;;10.14;100.00
71791;BME280;59638;52.126;5.434;2024-02-14T09:47:05;101518.69;;;10.14;100.00
71791;BME280;59638;52.126;5.434;2024-02-14T09:49:32;101516.16;;;10.12;100.00
71791;BME280;59638;52.126;5.434;2024-02-14T09:52:02;101520.69;;;10.10;100.00
71791;BME280;59638;52.126;5.434;2024-02-14T09:54:31;101528.75;;;10.08;100.00
71791;BME280;59638;52.126;5.434;2024-02-14T09:56:58;101527.06;;;10.07;100.00
71791;BME280;59638;52.126;5.434;2024-02-14T09:59:25;101526.09;;;10.08;100.00
71791;BME280;59638;52.126;5.434;2024-02-14T10:01:52;101532.97;;;10.11;100.00
71791;BME280;59638;52.126;5.434;2024-02-14T10:04:19;101529.47;;;10.11;100.00
71791;BME280;59638;52.126;5.434;2024-02-14T10:06:48;101530.31;;;10.11;100.00
71791;BME280;59638;52.126;5.434;2024-02-14T10:09:20;101527.56;;;10.13;100.00
71791;BME280;59638;52.126;5.434;2024-02-14T10:11:47;101535.22;;;10.16;100.00
71791;BME280;59638;52.126;5.434;2024-02-14T10:14:13;101528.06;;;10.18;100.00
71791;BME280;59638;52.126;5.434;2024-02-14T10:16:40;101532.38;;;10.19;100.00
71791;BME280;59638;52.126;5.434;2024-02-14T10:19:20;101537.38;;;10.22;100.00
71791;BME280;59638;52.126;5.434;2024-02-14T10:21:59;101535.72;;;10.21;100.00
71791;BME280;59638;52.126;5.434;2024-02-14T10:24:27;101529.47;;;10.22;100.00
71791;BME280;59638;52.126;5.434;2024-02-14T10:26:54;101531.28;;;10.21;100.00
71791;BME280;59638;52.126;5.434;2024-02-14T10:29:25;101540.81;;;10.24;100.00
71791;BME280;59638;52.126;5.434;2024-02-14T10:31:54;101546.78;;;10.26;100.00
71791;BME280;59638;52.126;5.434;2024-02-14T10:34:24;101538.75;;;10.27;100.00
71791;BME280;59638;52.126;5.434;2024-02-14T10:36:53;101546.53;;;10.29;100.00
71791;BME280;59638;52.126;5.434;2024-02-14T10:39:25;101537.66;;;10.30;100.00
71791;BME280;59638;52.126;5.434;2024-02-14T10:41:52;101538.28;;;10.33;100.00
71791;BME280;59638;52.126;5.434;2024-02-14T10:44:18;101552.09;;;10.37;100.00
71791;BME280;59638;52.126;5.434;2024-02-14T10:46:46;101548.50;;;10.38;100.00
71791;BME280;59638;52.126;5.434;2024-02-14T10:49:15;101543.09;;;10.40;100.00
71791;BME280;59638;52.126;5.434;2024-02-14T10:51:47;101545.38;;;10.44;100.00
71791;BME280;59638;52.126;5.434;2024-02-14T10:54:15;101551.38;;;10.46;100.00
71791;BME280;59638;52.126;5.434;2024-02-14T10:56:49;101539.63;;;10.50;100.00
71791;BME280;59638;52.126;5.434;2024-02-14T10:59:19;101548.25;;;10.52;100.00
71791;BME280;59638;52.126;5.434;2024-02-14T11:01:47;101550.63;;;10.55;100.00
71791;BME280;59638;52.126;5.434;2024-02-14T11:04:15;101556.66;;;10.57;100.00
71791;BME280;59638;52.126;5.434;2024-02-14T11:06:51;101554.84;;;10.58;100.00
71791;BME280;59638;52.126;5.434;2024-02-14T11:09:20;101554.00;;;10.57;100.00
71791;BME280;59638;52.126;5.434;2024-02-14T11:11:46;101536.38;;;10.58;100.00
71791;BME280;59638;52.126;5.434;2024-02-14T11:14:20;101536.97;;;10.61;100.00
71791;BME280;59638;52.126;5.434;2024-02-14T11:16:48;101537.78;;;10.62;100.00
71791;BME280;59638;52.126;5.434;2024-02-14T11:19:18;101542.00;;;10.65;100.00
71791;BME280;59638;52.126;5.434;2024-02-14T11:21:46;101543.69;;;10.66;100.00
71791;BME280;59638;52.126;5.434;2024-02-14T11:24:15;101541.16;;;10.64;100.00
71791;BME280;59638;52.126;5.434;2024-02-14T11:26:51;101544.53;;;10.66;100.00
71791;BME280;59638;52.126;5.434;2024-02-14T11:29:19;101533.13;;;10.66;100.00
71791;BME280;59638;52.126;5.434;2024-02-14T11:32:00;101524.22;;;10.67;100.00
71791;BME280;59638;52.126;5.434;2024-02-14T11:34:29;101532.88;;;10.69;100.00
71791;BME280;59638;52.126;5.434;2024-02-14T11:37:03;101528.41;;;10.69;100.00
71791;BME280;59638;52.126;5.434;2024-02-14T11:39:33;101527.59;;;10.69;100.00
71791;BME280;59638;52.126;5.434;2024-02-14T11:42:00;101532.88;;;10.69;100.00
71791;BME280;59638;52.126;5.434;2024-02-14T11:44:27;101525.91;;;10.68;100.00
71791;BME280;59638;52.126;5.434;2024-02-14T11:46:53;101525.78;;;10.69;100.00
71791;BME280;59638;52.126;5.434;2024-02-14T11:49:20;101529.28;;;10.70;100.00
71791;BME280;59638;52.126;5.434;2024-02-14T11:51:47;101534.31;;;10.73;100.00
71791;BME280;59638;52.126;5.434;2024-02-14T11:54:14;101516.53;;;10.75;100.00
71791;BME280;59638;52.126;5.434;2024-02-14T11:56:42;101521.59;;;10.78;100.00
71791;BME280;59638;52.126;5.434;2024-02-14T11:59:08;101518.69;;;10.81;100.00
71791;BME280;59638;52.126;5.434;2024-02-14T12:01:38;101525.66;;;10.82;100.00
71791;BME280;59638;52.126;5.434;2024-02-14T12:04:06;101520.28;;;10.83;100.00
71791;BME280;59638;52.126;5.434;2024-02-14T12:06:35;101522.78;;;10.85;100.00
71791;BME280;59638;52.126;5.434;2024-02-14T12:09:02;101513.75;;;10.87;100.00
71791;BME280;59638;52.126;5.434;2024-02-14T12:11:32;101521.44;;;10.91;100.00
71791;BME280;59638;52.126;5.434;2024-02-14T12:14:03;101515.34;;;10.90;100.00
71791;BME280;59638;52.126;5.434;2024-02-14T12:16:30;101501.72;;;10.95;100.00
71791;BME280;59638;52.126;5.434;2024-02-14T12:19:14;101514.09;;;10.94;100.00
71791;BME280;59638;52.126;5.434;2024-02-14T12:21:42;101516.75;;;10.94;100.00
71791;BME280;59638;52.126;5.434;2024-02-14T12:24:14;101518.69;;;10.92;100.00
71791;BME280;59638;52.126;5.434;2024-02-14T12:26:42;101512.44;;;10.93;100.00
71791;BME280;59638;52.126;5.434;2024-02-14T12:29:11;101522.03;;;10.94;100.00
71791;BME280;59638;52.126;5.434;2024-02-14T12:31:39;101521.19;;;10.94;100.00
71791;BME280;59638;52.126;5.434;2024-02-14T12:34:06;101514.09;;;10.94;100.00
71791;BME280;59638;52.126;5.434;2024-02-14T12:36:33;101517.00;;;10.91;100.00
71791;BME280;59638;52.126;5.434;2024-02-14T12:39:00;101513.63;;;10.89;100.00
71791;BME280;59638;52.126;5.434;2024-02-14T12:41:30;101516.41;;;10.87;100.00
71791;BME280;59638;52.126;5.434;2024-02-14T12:44:00;101511.94;;;10.88;100.00
71791;BME280;59638;52.126;5.434;2024-02-14T12:46:27;101517.00;;;10.91;100.00
71791;BME280;59638;52.126;5.434;2024-02-14T12:48:54;101520.34;;;10.93;100.00